Time;durP1;ratioP1;P1;durP2;ratioP2;P2;SDS_P1;SDS_P2;PMS_P1;PMS_P2;Temp;Humidity;BMP_temperature;BMP_pressure;BME280_temperature;BME280_humidity;BME280_pressure;Samples;Min_cycle;Max_cycle;Signal;HPM_P1;HPM_P2
2021/06/07 00:01:08;;;;;;;5.20;3.47;;;18.30;73.50;;;;;;5074452;28;20518;-67
2021/06/07 00:03:34;;;;;;;4.15;3.30;;;18.30;73.40;;;;;;5069038;28;20097;-67
2021/06/07 00:06:00;;;;;;;3.97;3.30;;;18.30;73.60;;;;;;5054129;28;20100;-67
2021/06/07 00:08:26;;;;;;;4.07;3.47;;;18.30;73.60;;;;;;5056420;28;20043;-67
2021/06/07 00:10:52;;;;;;;5.78;3.60;;;18.30;73.90;;;;;;5073947;28;20029;-67
2021/06/07 00:13:19;;;;;;;5.40;3.25;;;18.30;73.90;;;;;;5073964;28;20086;-67
2021/06/07 00:15:46;;;;;;;3.83;3.45;;;18.30;73.90;;;;;;5073664;28;20036;-68
2021/06/07 00:18:11;;;;;;;6.70;3.72;;;18.30;73.70;;;;;;5072987;28;20035;-67
2021/06/07 00:20:43;;;;;;;5.00;3.60;;;18.30;73.70;;;;;;5060159;28;20400;-67
2021/06/07 00:23:11;;;;;;;4.55;3.72;;;18.30;73.40;;;;;;5072718;28;20017;-67
2021/06/07 00:25:38;;;;;;;4.30;3.58;;;18.30;73.60;;;;;;5073822;28;20444;-67
2021/06/07 00:28:05;;;;;;;3.70;3.30;;;18.30;73.60;;;;;;5063383;28;20363;-68
2021/06/07 00:30:30;;;;;;;4.65;3.08;;;18.30;73.60;;;;;;5054220;28;20053;-67
2021/06/07 00:32:56;;;;;;;3.78;3.17;;;18.30;73.60;;;;;;5072700;28;20067;-67
2021/06/07 00:35:23;;;;;;;3.60;3.08;;;18.20;73.80;;;;;;5073793;28;20035;-67
2021/06/07 00:37:49;;;;;;;6.30;3.30;;;18.20;73.90;;;;;;5073461;28;20028;-67
2021/06/07 00:40:17;;;;;;;3.88;2.95;;;18.20;74.10;;;;;;5073037;28;20021;-67
2021/06/07 00:42:44;;;;;;;4.65;3.05;;;18.20;74.00;;;;;;5071787;28;20021;-67
2021/06/07 00:45:13;;;;;;;4.93;3.25;;;18.20;73.90;;;;;;5073189;28;20073;-67
2021/06/07 00:47:40;;;;;;;4.30;3.58;;;18.20;74.00;;;;;;5073035;28;20037;-67
2021/06/07 00:50:10;;;;;;;3.78;3.40;;;18.20;74.30;;;;;;5073228;28;20036;-68
2021/06/07 00:52:36;;;;;;;4.18;3.38;;;18.20;74.50;;;;;;5053568;28;20059;-67
2021/06/07 00:55:04;;;;;;;4.55;3.03;;;18.20;74.60;;;;;;5064353;28;20032;-67
2021/06/07 00:57:31;;;;;;;3.80;2.92;;;18.20;74.60;;;;;;5073284;28;20033;-67
2021/06/07 00:59:57;;;;;;;3.25;2.92;;;18.20;75.10;;;;;;5073147;28;20017;-67
2021/06/07 01:02:22;;;;;;;5.15;3.20;;;18.20;74.40;;;;;;5072272;28;20362;-67
2021/06/07 01:04:48;;;;;;;4.70;3.30;;;18.10;74.40;;;;;;5070850;28;20017;-68
2021/06/07 01:07:14;;;;;;;5.38;3.80;;;18.10;74.40;;;;;;5072505;28;20036;-67
2021/06/07 01:09:39;;;;;;;4.72;3.47;;;18.10;74.60;;;;;;5073031;28;20052;-67
2021/06/07 01:12:05;;;;;;;3.85;3.40;;;18.10;74.70;;;;;;5072833;28;20086;-67
2021/06/07 01:14:31;;;;;;;3.78;3.33;;;18.00;74.80;;;;;;5073259;28;20071;-67
2021/06/07 01:16:57;;;;;;;5.85;3.38;;;18.10;75.00;;;;;;5075800;28;20032;-67
2021/06/07 01:19:24;;;;;;;4.50;3.30;;;18.00;75.20;;;;;;5076114;28;20021;-67
2021/06/07 01:21:49;;;;;;;3.97;3.30;;;18.00;75.30;;;;;;5077121;28;20038;-67
2021/06/07 01:24:15;;;;;;;4.25;2.95;;;18.00;75.50;;;;;;5072158;28;20028;-67
2021/06/07 01:26:41;;;;;;;3.97;3.28;;;18.00;75.70;;;;;;5075334;28;20017;-67
2021/06/07 01:29:07;;;;;;;3.22;2.67;;;18.00;75.90;;;;;;5065304;28;20469;-67
2021/06/07 01:31:33;;;;;;;3.88;3.22;;;18.00;76.10;;;;;;5076806;28;20091;-67
2021/06/07 01:33:59;;;;;;;3.80;2.85;;;18.00;76.30;;;;;;5076834;28;20032;-67
2021/06/07 01:36:25;;;;;;;3.95;3.20;;;18.00;76.40;;;;;;5077050;28;20021;-67
2021/06/07 01:38:50;;;;;;;4.78;3.13;;;18.00;76.60;;;;;;5076886;28;20111;-67
2021/06/07 01:41:18;;;;;;;3.90;3.42;;;17.90;76.70;;;;;;5071513;28;20052;-67
2021/06/07 01:43:45;;;;;;;3.75;3.28;;;17.90;76.90;;;;;;5057743;28;20066;-67
2021/06/07 01:46:11;;;;;;;6.57;3.35;;;17.90;77.00;;;;;;5056794;28;20025;-67
2021/06/07 01:48:37;;;;;;;4.57;3.05;;;17.90;77.20;;;;;;5072200;28;20049;-67
2021/06/07 01:51:05;;;;;;;3.78;3.38;;;17.90;77.40;;;;;;5076597;28;20082;-67
2021/06/07 01:53:32;;;;;;;5.25;3.40;;;17.90;77.70;;;;;;5076857;28;20020;-67
2021/06/07 01:56:03;;;;;;;4.38;3.08;;;17.80;77.90;;;;;;5076662;28;20360;-67
2021/06/07 01:58:29;;;;;;;4.72;3.30;;;17.80;78.50;;;;;;5076660;28;20028;-67
2021/06/07 02:01:17;;;;;;;3.88;2.97;;;17.80;78.60;;;;;;5068951;28;20025;-67
2021/06/07 02:03:43;;;;;;;5.25;3.50;;;17.80;78.50;;;;;;5058572;28;20079;-67
2021/06/07 02:06:12;;;;;;;3.75;2.80;;;17.80;79.00;;;;;;5067692;28;20091;-67
2021/06/07 02:08:38;;;;;;;3.03;2.70;;;17.80;79.10;;;;;;5076134;28;20029;-67
2021/06/07 02:11:11;;;;;;;3.95;2.95;;;17.80;79.40;;;;;;5074859;28;20035;-67
2021/06/07 02:13:37;;;;;;;3.35;2.80;;;17.80;79.50;;;;;;5076444;28;20457;-67
2021/06/07 02:16:06;;;;;;;3.38;2.55;;;17.80;79.60;;;;;;5075928;28;20035;-67
2021/06/07 02:18:36;;;;;;;4.57;2.75;;;17.90;79.50;;;;;;5075760;28;20456;-67
2021/06/07 02:21:04;;;;;;;3.38;2.90;;;17.90;79.50;;;;;;5072426;28;20028;-67
2021/06/07 02:23:30;;;;;;;3.35;2.85;;;17.90;79.60;;;;;;5075749;28;20090;-67
2021/06/07 02:25:57;;;;;;;3.88;2.65;;;17.90;79.60;;;;;;5075484;28;20115;-67
2021/06/07 02:28:24;;;;;;;3.40;2.78;;;18.00;79.70;;;;;;5064102;28;20028;-67
2021/06/07 02:30:50;;;;;;;3.63;3.00;;;17.90;79.60;;;;;;5074689;28;20389;-67
2021/06/07 02:33:16;;;;;;;3.10;2.80;;;18.00;79.70;;;;;;5075020;28;20104;-67
2021/06/07 02:35:42;;;;;;;3.25;2.92;;;18.00;79.70;;;;;;5074664;28;20024;-67
2021/06/07 02:38:08;;;;;;;3.00;2.72;;;18.00;79.70;;;;;;5075549;28;20038;-67
2021/06/07 02:40:34;;;;;;;3.58;2.85;;;18.00;79.50;;;;;;5075493;28;20067;-67
2021/06/07 02:43:01;;;;;;;3.03;2.72;;;18.00;79.60;;;;;;5068222;28;20044;-67
2021/06/07 02:45:27;;;;;;;5.22;3.10;;;18.10;79.80;;;;;;5069634;28;20379;-67
2021/06/07 02:47:55;;;;;;;3.72;2.90;;;18.00;79.80;;;;;;5075399;28;20450;-67
2021/06/07 02:50:24;;;;;;;3.33;2.95;;;18.10;79.80;;;;;;5075489;28;20032;-67
2021/06/07 02:52:50;;;;;;;5.40;3.13;;;18.10;79.70;;;;;;5075357;28;20346;-67
2021/06/07 02:55:25;;;;;;;3.20;2.90;;;18.10;79.90;;;;;;5075560;28;20077;-67
2021/06/07 02:57:53;;;;;;;2.92;2.72;;;18.10;79.90;;;;;;5075624;28;20044;-67
2021/06/07 03:00:28;;;;;;;5.32;3.38;;;18.10;79.80;;;;;;5074753;28;20025;-67
2021/06/07 03:02:55;;;;;;;3.78;3.03;;;18.10;79.70;;;;;;5075744;28;20142;-67
2021/06/07 03:05:21;;;;;;;6.28;3.47;;;18.10;80.10;;;;;;5075472;28;20021;-67
2021/06/07 03:07:46;;;;;;;4.13;3.15;;;18.20;80.00;;;;;;5075432;28;20375;-67
2021/06/07 03:10:13;;;;;;;4.32;3.17;;;18.20;79.80;;;;;;5074327;28;20032;-67
2021/06/07 03:12:39;;;;;;;3.60;3.17;;;18.20;79.70;;;;;;5074954;28;20032;-67
2021/06/07 03:15:07;;;;;;;3.92;3.53;;;18.20;79.90;;;;;;5075349;28;20032;-67
2021/06/07 03:17:33;;;;;;;7.20;3.47;;;18.20;79.80;;;;;;5074429;28;20036;-67
2021/06/07 03:19:59;;;;;;;5.80;3.65;;;18.20;79.70;;;;;;5071281;28;20032;-67
2021/06/07 03:22:24;;;;;;;4.45;3.45;;;18.20;79.70;;;;;;5065577;28;20020;-67
2021/06/07 03:24:51;;;;;;;4.15;3.42;;;18.30;79.70;;;;;;5074656;28;20017;-67
2021/06/07 03:27:18;;;;;;;6.13;3.72;;;18.30;79.60;;;;;;5070524;28;20040;-67
2021/06/07 03:29:45;;;;;;;5.03;3.80;;;18.30;79.70;;;;;;5067875;28;20028;-67
2021/06/07 03:32:11;;;;;;;4.35;3.55;;;18.30;79.60;;;;;;5073669;28;20143;-67
2021/06/07 03:34:37;;;;;;;5.45;3.60;;;18.40;79.50;;;;;;5074742;28;20028;-67
2021/06/07 03:37:03;;;;;;;8.65;3.30;;;18.40;79.20;;;;;;5073939;28;20516;-67
2021/06/07 03:39:29;;;;;;;4.05;3.58;;;18.50;79.20;;;;;;5073484;28;20108;-67
2021/06/07 03:41:55;;;;;;;4.13;3.63;;;18.60;79.20;;;;;;5074695;28;20020;-67
2021/06/07 03:44:21;;;;;;;4.95;3.80;;;18.70;79.20;;;;;;5073065;28;20472;-67
2021/06/07 03:46:46;;;;;;;4.75;3.50;;;18.80;78.80;;;;;;5073461;28;20420;-67
2021/06/07 03:49:12;;;;;;;4.68;3.63;;;19.00;78.30;;;;;;5074213;28;20521;-67
2021/06/07 03:51:38;;;;;;;5.10;3.90;;;19.10;77.90;;;;;;5074595;28;20029;-67
2021/06/07 03:54:04;;;;;;;5.15;3.88;;;19.40;77.30;;;;;;5074441;28;20457;-67
2021/06/07 03:56:30;;;;;;;6.65;3.80;;;19.50;77.00;;;;;;5074427;28;20016;-67
2021/06/07 03:58:55;;;;;;;4.20;3.20;;;19.50;76.70;;;;;;5074199;28;20032;-67
2021/06/07 04:01:21;;;;;;;5.40;3.38;;;19.60;76.20;;;;;;5074484;28;20028;-67
2021/06/07 04:03:47;;;;;;;4.13;3.58;;;19.60;75.60;;;;;;5071558;28;20025;-67
2021/06/07 04:06:13;;;;;;;5.72;4.00;;;19.60;75.30;;;;;;5055666;28;20032;-67
2021/06/07 04:08:39;;;;;;;4.45;3.30;;;19.60;75.40;;;;;;5074031;28;20025;-67
2021/06/07 04:11:04;;;;;;;7.07;3.67;;;19.50;75.30;;;;;;5061818;28;20025;-68
2021/06/07 04:13:30;;;;;;;4.55;3.40;;;19.60;75.50;;;;;;5054328;28;20025;-67
2021/06/07 04:15:56;;;;;;;5.93;4.00;;;19.60;75.70;;;;;;5054121;28;20131;-67
2021/06/07 04:18:22;;;;;;;5.97;4.07;;;19.80;75.70;;;;;;5054010;28;20025;-67
2021/06/07 04:20:47;;;;;;;5.38;3.65;;;19.90;75.60;;;;;;5062081;28;20399;-67
2021/06/07 04:23:13;;;;;;;4.95;3.60;;;20.00;75.10;;;;;;5074160;28;20387;-67
2021/06/07 04:25:38;;;;;;;6.47;3.95;;;20.20;75.00;;;;;;5073865;28;20080;-67
2021/06/07 04:28:05;;;;;;;4.45;3.60;;;20.30;74.30;;;;;;5068767;28;20072;-68
2021/06/07 04:30:31;;;;;;;4.18;3.58;;;20.30;73.90;;;;;;5070647;28;20480;-68
2021/06/07 04:33:00;;;;;;;3.78;3.38;;;20.40;73.80;;;;;;5074054;28;20025;-67
2021/06/07 04:35:27;;;;;;;5.18;3.50;;;20.50;74.10;;;;;;5073887;28;20024;-67
2021/06/07 04:37:53;;;;;;;4.90;3.22;;;20.90;75.10;;;;;;5073586;28;20025;-67
2021/06/07 04:40:34;;;;;;;3.92;3.53;;;21.90;75.40;;;;;;5073192;28;20031;-68
2021/06/07 04:43:02;;;;;;;3.63;3.28;;;23.00;72.30;;;;;;5071988;28;20024;-68
2021/06/07 04:45:28;;;;;;;3.45;3.10;;;23.80;68.70;;;;;;5073878;28;20039;-68
2021/06/07 04:47:55;;;;;;;4.18;3.15;;;24.10;66.50;;;;;;5073444;28;20510;-68
2021/06/07 04:50:23;;;;;;;5.13;3.80;;;24.00;65.00;;;;;;5072704;28;20104;-68
2021/06/07 04:52:59;;;;;;;3.70;3.30;;;23.90;64.50;;;;;;5072631;28;20466;-68
2021/06/07 04:55:52;;;;;;;4.78;3.47;;;23.70;64.70;;;;;;5072291;28;20055;-68
2021/06/07 04:58:36;;;;;;;4.63;3.72;;;23.50;65.10;;;;;;5061129;28;20036;-68
2021/06/07 05:01:08;;;;;;;4.45;4.05;;;23.40;65.70;;;;;;5071385;28;20481;-68
2021/06/07 05:03:34;;;;;;;5.35;3.33;;;23.60;66.10;;;;;;5072841;28;20131;-68
2021/06/07 05:06:01;;;;;;;4.25;3.25;;;23.90;65.30;;;;;;5072540;28;20020;-68
2021/06/07 05:08:28;;;;;;;4.95;3.67;;;24.10;64.40;;;;;;5072012;28;20430;-68
2021/06/07 05:10:55;;;;;;;3.72;3.30;;;24.00;63.90;;;;;;5063048;28;20035;-67
2021/06/07 05:13:21;;;;;;;4.82;3.78;;;24.00;63.50;;;;;;5058225;28;20024;-55
2021/06/07 05:15:47;;;;;;;4.15;3.75;;;23.80;63.60;;;;;;5071007;28;20114;-55
2021/06/07 05:18:13;;;;;;;3.65;3.20;;;23.50;64.00;;;;;;5071361;28;20024;-55
2021/06/07 05:20:40;;;;;;;5.50;4.05;;;23.30;64.30;;;;;;5068648;28;20021;-55
2021/06/07 05:23:06;;;;;;;4.13;3.35;;;23.10;64.70;;;;;;5065512;28;20024;-51
2021/06/07 05:25:33;;;;;;;4.32;3.30;;;22.90;65.10;;;;;;5060712;28;20023;-54
2021/06/07 05:28:01;;;;;;;5.07;3.80;;;22.70;65.50;;;;;;5051908;28;20425;-54
2021/06/07 05:30:29;;;;;;;3.90;3.50;;;22.60;65.90;;;;;;5056617;28;20067;-54
2021/06/07 05:32:55;;;;;;;4.78;3.67;;;22.50;66.20;;;;;;5066316;28;20025;-54
2021/06/07 05:35:24;;;;;;;4.75;3.40;;;22.40;66.50;;;;;;5065698;28;20028;-53
2021/06/07 05:37:50;;;;;;;5.63;3.95;;;22.30;66.70;;;;;;5070992;28;20028;-56
2021/06/07 05:40:18;;;;;;;5.03;3.85;;;22.30;66.80;;;;;;5059398;28;20472;-53
2021/06/07 05:42:44;;;;;;;5.05;3.60;;;22.20;67.00;;;;;;5060196;28;20519;-56
2021/06/07 05:45:12;;;;;;;5.55;4.03;;;22.20;67.20;;;;;;5066509;28;20052;-56
2021/06/07 05:47:38;;;;;;;8.00;5.68;;;22.10;67.40;;;;;;5048079;28;237094;-54
2021/06/07 05:50:06;;;;;;;4.97;4.35;;;22.00;67.40;;;;;;5061223;28;20032;-53
2021/06/07 05:52:32;;;;;;;5.18;3.92;;;22.00;67.60;;;;;;5058290;28;20120;-55
2021/06/07 05:54:58;;;;;;;4.75;3.70;;;21.90;67.50;;;;;;5057729;28;20189;-54
2021/06/07 05:57:23;;;;;;;6.57;3.95;;;21.80;67.80;;;;;;5057478;28;20430;-56
2021/06/07 05:59:49;;;;;;;4.18;3.72;;;21.70;68.20;;;;;;5058263;28;20112;-54
2021/06/07 06:02:16;;;;;;;5.20;4.45;;;21.70;68.60;;;;;;5055574;28;20534;-54
2021/06/07 06:04:42;;;;;;;5.53;4.10;;;21.60;68.60;;;;;;5061980;28;20032;-56
2021/06/07 06:07:08;;;;;;;4.72;4.05;;;21.50;68.70;;;;;;5059759;28;20028;-56
2021/06/07 06:09:34;;;;;;;5.38;4.47;;;21.50;68.90;;;;;;5060619;28;20033;-57
2021/06/07 06:12:01;;;;;;;4.82;4.15;;;21.40;69.10;;;;;;5065233;28;20040;-56
2021/06/07 06:14:27;;;;;;;4.60;3.85;;;21.40;69.50;;;;;;5065269;28;20029;-55
2021/06/07 06:16:53;;;;;;;4.70;4.20;;;21.40;69.70;;;;;;5063421;28;20031;-56
2021/06/07 06:19:19;;;;;;;9.63;3.83;;;21.30;69.90;;;;;;5062889;28;20036;-56
2021/06/07 06:21:45;;;;;;;4.78;3.95;;;21.40;70.00;;;;;;5060954;28;20029;-54
2021/06/07 06:24:12;;;;;;;4.95;3.45;;;21.40;70.20;;;;;;5063003;28;20025;-51
2021/06/07 06:26:39;;;;;;;4.78;3.58;;;21.50;70.30;;;;;;5063919;28;20029;-57
2021/06/07 06:29:07;;;;;;;4.60;4.00;;;21.50;70.20;;;;;;5058908;28;20040;-51
2021/06/07 06:31:33;;;;;;;4.85;3.67;;;21.60;70.20;;;;;;5059954;28;20362;-57
2021/06/07 06:33:59;;;;;;;4.78;3.90;;;21.70;70.00;;;;;;5063201;28;20025;-53
2021/06/07 06:36:25;;;;;;;4.18;3.67;;;21.70;70.20;;;;;;5058653;28;20036;-57
2021/06/07 06:38:51;;;;;;;4.97;3.70;;;21.70;70.10;;;;;;5054100;28;20488;-58
2021/06/07 06:41:17;;;;;;;4.25;3.67;;;21.80;70.00;;;;;;5057783;28;20043;-57
2021/06/07 06:43:43;;;;;;;3.88;3.35;;;21.80;69.80;;;;;;5054225;28;20039;-57
2021/06/07 06:46:09;;;;;;;4.25;3.22;;;21.90;70.10;;;;;;5061452;28;20032;-57
2021/06/07 06:48:35;;;;;;;3.80;3.22;;;22.00;70.20;;;;;;5058590;28;20139;-57
2021/06/07 06:51:02;;;;;;;4.72;3.60;;;22.00;69.60;;;;;;5061603;28;20096;-56
2021/06/07 06:53:28;;;;;;;6.35;3.78;;;22.10;69.20;;;;;;5060713;28;20032;-57
2021/06/07 06:55:54;;;;;;;3.67;3.38;;;22.10;68.90;;;;;;5063416;28;20032;-56
2021/06/07 06:58:21;;;;;;;3.38;3.08;;;22.20;68.80;;;;;;5057411;28;20036;-56
2021/06/07 07:00:48;;;;;;;4.18;3.45;;;22.20;68.50;;;;;;5058887;28;20035;-57
2021/06/07 07:03:16;;;;;;;5.25;3.35;;;22.20;68.10;;;;;;5055590;28;20028;-56
2021/06/07 07:05:42;;;;;;;3.97;3.33;;;22.30;67.90;;;;;;5053956;28;20043;-59
2021/06/07 07:08:09;;;;;;;4.60;3.72;;;22.30;67.80;;;;;;5049054;28;20048;-61
2021/06/07 07:10:39;;;;;;;4.22;3.35;;;22.30;67.80;;;;;;5057257;28;20119;-59
2021/06/07 07:13:05;;;;;;;4.05;3.22;;;22.40;67.80;;;;;;5053159;28;20033;-58
2021/06/07 07:15:31;;;;;;;4.93;4.00;;;22.40;67.90;;;;;;5054676;28;20113;-58
2021/06/07 07:17:56;;;;;;;5.07;4.00;;;22.50;68.20;;;;;;5058770;28;20136;-56
2021/06/07 07:20:22;;;;;;;6.47;3.85;;;22.50;68.10;;;;;;5050662;28;20033;-58
2021/06/07 07:22:48;;;;;;;4.63;3.58;;;22.60;68.10;;;;;;5050828;28;20346;-56
2021/06/07 07:25:14;;;;;;;3.72;3.33;;;22.70;68.10;;;;;;5058961;28;20039;-56
2021/06/07 07:27:41;;;;;;;3.75;3.45;;;22.70;68.40;;;;;;5052823;28;20707;-57
2021/06/07 07:30:13;;;;;;;4.15;3.60;;;22.80;68.00;;;;;;5040249;28;20098;-62
2021/06/07 07:32:41;;;;;;;3.90;3.53;;;22.90;67.90;;;;;;5051947;28;20039;-59
2021/06/07 07:35:08;;;;;;;3.60;3.30;;;22.90;67.40;;;;;;5059508;28;20056;-58
2021/06/07 07:37:35;;;;;;;4.90;3.30;;;22.90;67.30;;;;;;5060166;28;20032;-57
2021/06/07 07:40:03;;;;;;;3.97;3.58;;;22.90;67.20;;;;;;5053755;28;20035;-55
2021/06/07 07:42:28;;;;;;;3.83;3.17;;;22.90;67.20;;;;;;5053521;28;20050;-57
2021/06/07 07:44:54;;;;;;;3.70;3.38;;;23.00;67.30;;;;;;5048788;28;20037;-59
2021/06/07 07:47:21;;;;;;;3.90;3.50;;;23.00;67.10;;;;;;5056135;28;20020;-57
2021/06/07 07:49:47;;;;;;;4.50;3.30;;;23.10;66.70;;;;;;5058498;28;20075;-56
2021/06/07 07:52:13;;;;;;;5.47;3.67;;;23.10;66.60;;;;;;5056795;28;20032;-57
2021/06/07 07:54:39;;;;;;;3.90;3.33;;;23.10;66.50;;;;;;5060861;28;20517;-57
2021/06/07 07:57:05;;;;;;;6.32;3.80;;;23.10;66.30;;;;;;5058168;28;20197;-57
2021/06/07 07:59:32;;;;;;;3.65;3.33;;;23.20;66.30;;;;;;5050801;28;20443;-57
2021/06/07 08:01:58;;;;;;;4.05;3.45;;;23.20;65.80;;;;;;5051964;28;20044;-55
2021/06/07 08:04:24;;;;;;;3.65;3.33;;;23.30;65.80;;;;;;5047698;28;20031;-57
2021/06/07 08:06:50;;;;;;;4.22;3.55;;;23.30;66.00;;;;;;5049689;28;20025;-59
2021/06/07 08:09:16;;;;;;;4.30;3.63;;;23.30;65.80;;;;;;5050634;28;20024;-56
2021/06/07 08:11:43;;;;;;;4.35;3.63;;;23.30;65.60;;;;;;5047137;28;20148;-56
2021/06/07 08:14:08;;;;;;;4.50;3.47;;;23.40;65.80;;;;;;5048052;28;20128;-56
2021/06/07 08:16:34;;;;;;;3.72;3.28;;;23.40;65.60;;;;;;5053200;28;20664;-56
2021/06/07 08:19:00;;;;;;;3.42;3.13;;;23.40;65.50;;;;;;5053304;28;20373;-55
2021/06/07 08:21:25;;;;;;;4.07;3.33;;;23.50;65.60;;;;;;5053816;28;20035;-56
2021/06/07 08:23:51;;;;;;;4.13;3.35;;;23.50;65.60;;;;;;5053337;28;20095;-56
2021/06/07 08:26:17;;;;;;;3.47;3.08;;;23.60;65.80;;;;;;5052173;28;20047;-56
2021/06/07 08:28:42;;;;;;;4.38;3.78;;;23.60;65.60;;;;;;5047139;28;20032;-57
2021/06/07 08:31:08;;;;;;;4.57;3.70;;;23.70;65.60;;;;;;5067697;28;20504;-53
2021/06/07 08:33:35;;;;;;;6.30;3.80;;;23.80;65.70;;;;;;5051927;28;20029;-56
2021/06/07 08:36:02;;;;;;;4.15;3.30;;;23.90;65.60;;;;;;5049253;28;20028;-56
2021/06/07 08:38:28;;;;;;;3.70;3.30;;;23.90;64.90;;;;;;5054097;28;20097;-57
2021/06/07 08:40:54;;;;;;;3.53;3.22;;;23.90;64.60;;;;;;5046392;28;21916;-56
2021/06/07 08:43:24;;;;;;;3.25;2.95;;;24.00;64.10;;;;;;5053614;28;20035;-56
2021/06/07 08:45:50;;;;;;;3.70;3.30;;;24.00;64.30;;;;;;5055682;28;20052;-57
2021/06/07 08:48:16;;;;;;;5.18;3.10;;;24.00;64.10;;;;;;5056303;28;20540;-55
2021/06/07 08:50:44;;;;;;;3.95;3.20;;;24.00;63.90;;;;;;5047786;28;20033;-58
2021/06/07 08:53:10;;;;;;;4.70;3.38;;;24.10;64.00;;;;;;5051574;28;20403;-57
2021/06/07 08:55:37;;;;;;;4.70;3.30;;;24.10;64.00;;;;;;5051660;28;20036;-57
2021/06/07 08:58:07;;;;;;;3.42;3.13;;;24.10;63.80;;;;;;5049749;28;20040;-57
2021/06/07 09:00:39;;;;;;;3.55;3.25;;;24.10;63.80;;;;;;5052314;28;20028;-56
2021/06/07 09:03:20;;;;;;;3.40;3.10;;;24.10;63.70;;;;;;5052524;28;20056;-55
2021/06/07 09:05:55;;;;;;;3.80;3.08;;;24.10;63.80;;;;;;5055059;28;20491;-58
2021/06/07 09:08:25;;;;;;;4.47;3.17;;;24.00;63.80;;;;;;5049458;28;20044;-58
2021/06/07 09:10:52;;;;;;;3.63;3.30;;;24.00;64.40;;;;;;5059398;28;20033;-60
2021/06/07 09:13:21;;;;;;;3.90;3.50;;;23.90;63.90;;;;;;5051509;28;20629;-59
2021/06/07 09:15:52;;;;;;;5.07;3.38;;;23.90;63.80;;;;;;5054602;28;20063;-57
2021/06/07 09:18:33;;;;;;;3.97;3.55;;;23.80;64.00;;;;;;5056993;28;20431;-57
2021/06/07 09:21:11;;;;;;;4.10;3.45;;;23.80;63.90;;;;;;5049516;28;20729;-57
2021/06/07 09:23:39;;;;;;;3.40;3.10;;;23.70;64.20;;;;;;5057589;28;20079;-57
2021/06/07 09:26:07;;;;;;;4.10;3.60;;;23.60;64.20;;;;;;5058548;28;20079;-58
2021/06/07 09:28:39;;;;;;;4.90;3.20;;;23.50;64.40;;;;;;5050793;28;20595;-54
2021/06/07 09:31:08;;;;;;;3.58;3.20;;;23.40;64.50;;;;;;5051523;28;20562;-55
2021/06/07 09:33:43;;;;;;;3.50;3.20;;;23.30;64.80;;;;;;5054005;28;20195;-57
2021/06/07 09:36:32;;;;;;;3.67;3.38;;;23.30;64.80;;;;;;5056002;28;20036;-56
2021/06/07 09:39:10;;;;;;;3.42;3.13;;;23.20;64.70;;;;;;5058214;28;20495;-57
2021/06/07 09:41:54;;;;;;;3.42;3.13;;;23.20;64.50;;;;;;5054805;28;20024;-54
2021/06/07 09:44:23;;;;;;;3.20;2.92;;;23.20;64.40;;;;;;5058504;28;20040;-53
2021/06/07 09:46:52;;;;;;;3.33;3.03;;;23.20;64.60;;;;;;5062510;28;20361;-56
2021/06/07 09:49:21;;;;;;;3.20;2.90;;;23.20;64.70;;;;;;5055296;28;20048;-53
2021/06/07 09:51:59;;;;;;;3.55;3.05;;;23.30;64.70;;;;;;5055637;28;20076;-55
2021/06/07 09:54:26;;;;;;;3.25;2.95;;;23.40;64.50;;;;;;5060904;28;20043;-55
2021/06/07 09:56:55;;;;;;;3.33;2.72;;;23.50;64.20;;;;;;5057909;28;20028;-55
2021/06/07 09:59:28;;;;;;;3.25;2.95;;;23.60;63.80;;;;;;5057143;28;22566;-55
2021/06/07 10:01:58;;;;;;;2.85;2.65;;;23.60;63.60;;;;;;5056450;28;20037;-56
2021/06/07 10:04:46;;;;;;;3.83;2.85;;;23.70;63.10;;;;;;5050884;28;20024;-57
2021/06/07 10:07:12;;;;;;;2.88;2.63;;;23.80;62.80;;;;;;5056378;28;20421;-56
2021/06/07 10:09:38;;;;;;;3.10;2.80;;;23.80;62.80;;;;;;5054301;28;20167;-56
2021/06/07 10:12:23;;;;;;;2.75;2.55;;;23.80;62.80;;;;;;5053968;28;20029;-54
2021/06/07 10:14:49;;;;;;;2.70;2.47;;;23.70;62.60;;;;;;5056486;28;20111;-55
2021/06/07 10:17:15;;;;;;;2.70;2.50;;;23.60;62.50;;;;;;5056313;28;20028;-56
2021/06/07 10:22:12;;;;;;;2.80;2.60;;;23.50;62.80;;;;;;5059767;28;20679;-57
2021/06/07 10:24:39;;;;;;;3.13;2.67;;;23.50;62.70;;;;;;5057282;28;20021;-54
2021/06/07 10:27:05;;;;;;;2.70;2.40;;;23.40;62.90;;;;;;5057993;28;20036;-55
2021/06/07 10:29:36;;;;;;;3.00;2.70;;;23.40;62.90;;;;;;5054204;28;20130;-55
2021/06/07 10:32:17;;;;;;;2.75;2.55;;;23.40;62.70;;;;;;5066722;28;20025;-54
2021/06/07 10:34:49;;;;;;;2.50;2.30;;;23.40;62.90;;;;;;5060049;28;20062;-55
2021/06/07 10:37:15;;;;;;;3.92;2.67;;;23.40;63.10;;;;;;5052045;28;20025;-56
2021/06/07 10:39:41;;;;;;;3.33;2.70;;;23.40;62.90;;;;;;5050252;28;20029;-57
2021/06/07 10:42:10;;;;;;;3.90;2.65;;;23.40;62.70;;;;;;5053251;28;20036;-56
2021/06/07 10:44:46;;;;;;;2.55;2.30;;;23.40;62.90;;;;;;5054141;28;20111;-56
2021/06/07 10:47:15;;;;;;;2.88;2.47;;;23.40;63.00;;;;;;5056339;28;20118;-57
2021/06/07 10:49:43;;;;;;;4.32;2.72;;;23.40;63.20;;;;;;5059173;28;20051;-57
2021/06/07 10:52:22;;;;;;;2.40;2.25;;;23.40;63.30;;;;;;5055521;28;20120;-54
2021/06/07 10:55:21;;;;;;;3.00;2.70;;;23.40;64.20;;;;;;5052920;28;20480;-54
2021/06/07 10:57:58;;;;;;;2.92;2.53;;;23.50;63.50;;;;;;5024692;28;20036;-53
2021/06/07 11:00:26;;;;;;;3.28;2.55;;;23.50;63.40;;;;;;5056930;28;20033;-54
2021/06/07 11:02:56;;;;;;;3.85;2.78;;;23.50;63.20;;;;;;5057909;28;20024;-55
2021/06/07 11:05:33;;;;;;;3.83;2.85;;;23.40;63.20;;;;;;5054504;28;20035;-57
2021/06/07 11:08:05;;;;;;;5.85;3.00;;;23.40;64.40;;;;;;5055261;28;20068;-54
2021/06/07 11:10:32;;;;;;;3.08;2.50;;;23.20;65.40;;;;;;5055127;28;20038;-55
2021/06/07 11:13:01;;;;;;;3.03;2.30;;;22.90;66.10;;;;;;5061392;28;20139;-55
2021/06/07 11:15:41;;;;;;;2.40;2.20;;;22.60;66.70;;;;;;5057965;28;20174;-53
2021/06/07 11:18:19;;;;;;;2.45;2.25;;;22.30;67.50;;;;;;5054572;28;20027;-57
2021/06/07 11:20:45;;;;;;;2.42;2.20;;;22.10;68.70;;;;;;5053231;28;20024;-60
2021/06/07 11:23:15;;;;;;;3.15;2.60;;;21.90;68.40;;;;;;5054571;28;20036;-60
2021/06/07 11:25:43;;;;;;;2.50;2.30;;;21.70;68.90;;;;;;5056011;28;20073;-58
2021/06/07 11:28:37;;;;;;;3.13;2.28;;;21.60;69.50;;;;;;5056738;28;20036;-55
2021/06/07 11:31:05;;;;;;;2.55;2.30;;;21.40;69.70;;;;;;5057935;28;20483;-58
2021/06/07 11:33:47;;;;;;;2.67;2.33;;;21.30;70.30;;;;;;5059256;28;20127;-55
2021/06/07 11:36:51;;;;;;;2.67;2.40;;;21.10;70.80;;;;;;5050531;28;20036;-55
2021/06/07 11:39:22;;;;;;;3.72;2.63;;;21.00;70.90;;;;;;5052225;28;20638;-55
2021/06/07 11:41:53;;;;;;;2.40;2.20;;;21.00;71.20;;;;;;5048323;28;20148;-57
2021/06/07 11:44:39;;;;;;;4.03;2.10;;;20.90;71.40;;;;;;5051287;28;20678;-57
2021/06/07 11:47:05;;;;;;;2.60;2.03;;;20.80;71.50;;;;;;5056671;28;20036;-58
2021/06/07 11:49:31;;;;;;;2.80;2.13;;;20.80;71.50;;;;;;5055978;28;20382;-55
2021/06/07 11:52:03;;;;;;;2.25;2.00;;;20.70;71.60;;;;;;5048668;28;20444;-51
2021/06/07 11:54:29;;;;;;;2.20;2.00;;;20.70;71.80;;;;;;5052602;28;20028;-55
2021/06/07 11:57:00;;;;;;;2.35;2.05;;;20.70;72.00;;;;;;5050661;28;21561;-56
2021/06/07 11:59:27;;;;;;;;;;;20.70;72.00;;;;;;5050429;28;20033;-56
2021/06/07 12:01:53;;;;;;;2.58;2.13;;;20.70;71.90;;;;;;5053292;28;19927;-59
2021/06/07 12:04:37;;;;;;;2.60;2.40;;;20.70;72.10;;;;;;5053953;28;20033;-52
2021/06/07 12:07:11;;;;;;;2.60;2.40;;;20.70;72.00;;;;;;5052551;28;20126;-57
2021/06/07 12:09:46;;;;;;;2.92;2.47;;;20.70;72.00;;;;;;5060166;28;20032;-56
2021/06/07 12:12:12;;;;;;;2.88;2.25;;;20.60;72.10;;;;;;5052535;28;20028;-56
2021/06/07 12:14:40;;;;;;;3.67;3.38;;;20.60;72.50;;;;;;5052418;28;20432;-56
2021/06/07 12:17:17;;;;;;;3.40;2.65;;;20.70;72.80;;;;;;5055599;28;20691;-54
2021/06/07 12:19:56;;;;;;;2.97;2.78;;;20.70;72.70;;;;;;5056784;28;20037;-57
2021/06/07 12:22:33;;;;;;;4.13;2.90;;;20.70;72.80;;;;;;5055818;28;20033;-60
2021/06/07 12:28:17;;;;;;;3.15;2.85;;;20.70;72.90;;;;;;5071818;28;20025;-55
2021/06/07 12:28:19;;;;;;;3.00;2.75;;;20.70;72.40;;;;;;5038370;28;20419;-54
2021/06/07 12:30:50;;;;;;;3.33;3.03;;;20.80;72.70;;;;;;5054356;28;20043;-57
2021/06/07 12:33:30;;;;;;;3.08;2.80;;;20.80;72.70;;;;;;5062852;28;20590;-55
2021/06/07 12:35:56;;;;;;;3.42;2.97;;;20.90;72.90;;;;;;5052010;28;20032;-58
2021/06/07 12:38:22;;;;;;;3.88;3.45;;;20.90;73.20;;;;;;5047753;28;20036;-57
2021/06/07 12:40:51;;;;;;;3.45;3.15;;;20.90;73.20;;;;;;5049896;28;20055;-56
2021/06/07 12:43:22;;;;;;;4.05;3.65;;;21.00;73.20;;;;;;5051120;28;20117;-59
2021/06/07 12:45:55;;;;;;;3.75;3.40;;;21.10;73.00;;;;;;5049571;28;20391;-57
2021/06/07 12:48:22;;;;;;;4.00;3.28;;;21.10;73.20;;;;;;5052823;28;20511;-54
2021/06/07 12:50:47;;;;;;;3.63;3.33;;;21.30;73.30;;;;;;5050578;28;20055;-55
2021/06/07 12:53:14;;;;;;;5.00;3.60;;;21.30;73.10;;;;;;5037428;28;20143;-56
2021/06/07 12:55:41;;;;;;;4.57;4.18;;;21.40;73.00;;;;;;5051645;28;20029;-56
2021/06/07 12:58:13;;;;;;;4.75;3.83;;;21.50;73.20;;;;;;5051663;28;20020;-55